Time;durP1;ratioP1;P1;durP2;ratioP2;P2;SDS_P1;SDS_P2;PMS_P1;PMS_P2;Temp;Humidity;BMP_temperature;BMP_pressure;BME280_temperature;BME280_humidity;BME280_pressure;Samples;Min_cycle;Max_cycle;Signal;HPM_P1;HPM_P2
2022/12/24 00:00:18;;;;;;;;;;;;;;;22.04;nan;94987.63;6107585;19;1830;-72
2022/12/24 00:02:22;;;;;;;;;;;;;;;22.01;nan;94986.22;6086302;19;1537;-72
2022/12/24 00:04:25;;;;;;;;;;;;;;;22.04;nan;94982.28;6094860;19;1747;-72
2022/12/24 00:06:28;;;;;;;;;;;;;;;22.05;nan;94992.78;6094891;19;1838;-73
2022/12/24 00:08:32;;;;;;;;;;;;;;;22.05;nan;94990.09;6078042;19;1820;-73
2022/12/24 00:10:37;;;;;;;;;;;;;;;22.06;nan;94986.38;6085961;19;1058;-72
2022/12/24 00:12:41;;;;;;;;;;;;;;;22.11;nan;94981.19;6091657;19;1651;-72
2022/12/24 00:14:44;;;;;;;;;;;;;;;22.20;nan;94983.56;6096865;19;1705;-71
2022/12/24 00:16:47;;;;;;;;;;;;;;;22.25;nan;94989.06;6095955;19;1705;-72
2022/12/24 00:18:51;;;;;;;;;;;;;;;22.20;nan;94988.94;6096346;19;1798;-71
2022/12/24 00:20:54;;;;;;;;;;;;;;;22.17;nan;94984.84;6069825;19;1607;-71
2022/12/24 00:22:57;;;;;;;;;;;;;;;22.08;nan;94984.31;6088632;19;1739;-72
2022/12/24 00:25:01;;;;;;;;;;;;;;;22.12;nan;94984.69;6093240;19;1829;-74
2022/12/24 00:27:07;;;;;;;;;;;;;;;22.09;nan;94991.28;6094711;19;1941;-72
2022/12/24 00:29:10;;;;;;;;;;;;;;;22.08;nan;94989.66;6093575;19;1853;-73
2022/12/24 00:31:14;;;;;;;;;;;;;;;22.10;nan;94989.44;6080464;19;1829;-73
2022/12/24 00:33:18;;;;;;;;;;;;;;;22.09;nan;94977.91;6083432;19;1631;-71
2022/12/24 00:35:21;;;;;;;;;;;;;;;22.19;nan;94984.59;6092400;19;1053;-70
2022/12/24 00:37:24;;;;;;;;;;;;;;;22.33;nan;94984.22;6095013;19;1821;-70
2022/12/24 00:39:28;;;;;;;;;;;;;;;22.41;nan;94985.78;6091844;19;1024;-71
2022/12/24 00:41:31;;;;;;;;;;;;;;;22.44;nan;94980.00;6094453;19;1563;-72
2022/12/24 00:43:37;;;;;;;;;;;;;;;22.52;nan;94978.88;6062598;19;1809;-71
2022/12/24 00:45:40;;;;;;;;;;;;;;;22.44;nan;94985.34;6092489;19;1846;-73
2022/12/24 00:47:44;;;;;;;;;;;;;;;22.39;nan;94985.19;6098122;19;1495;-73
2022/12/24 00:49:47;;;;;;;;;;;;;;;22.41;nan;94984.97;6107484;19;1849;-72
2022/12/24 00:51:50;;;;;;;;;;;;;;;22.35;nan;94982.16;6106725;19;1604;-72
2022/12/24 00:53:54;;;;;;;;;;;;;;;22.36;nan;94980.28;6079760;19;1850;-70
2022/12/24 00:55:58;;;;;;;;;;;;;;;22.26;nan;94990.72;6079248;19;1807;-70
2022/12/24 00:58:01;;;;;;;;;;;;;;;22.22;nan;94984.16;6095405;19;1857;-70
2022/12/24 01:00:08;;;;;;;;;;;;;;;22.20;nan;94987.06;6093479;19;1708;-70
2022/12/24 01:02:11;;;;;;;;;;;;;;;22.18;nan;94983.78;6094569;19;1668;-70
2022/12/24 01:06:30;;;;;;;;;;;;;;;22.13;nan;94992.47;6063219;19;1849;-71
2022/12/24 01:08:34;;;;;;;;;;;;;;;22.16;nan;94982.38;6094289;19;1566;-70
2022/12/24 01:10:38;;;;;;;;;;;;;;;22.13;nan;94979.09;6092555;19;1815;-70
2022/12/24 01:12:41;;;;;;;;;;;;;;;22.12;nan;94985.50;6094736;19;1642;-71
2022/12/24 01:14:45;;;;;;;;;;;;;;;22.11;nan;94981.19;6092992;19;1814;-71
2022/12/24 01:16:50;;;;;;;;;;;;;;;22.12;nan;94990.03;6070791;19;1796;-71
2022/12/24 01:18:54;;;;;;;;;;;;;;;22.12;nan;94990.84;6090618;19;1183;-70
2022/12/24 01:20:58;;;;;;;;;;;;;;;22.11;nan;94989.22;6095140;19;1630;-71
2022/12/24 01:23:02;;;;;;;;;;;;;;;22.12;nan;94984.69;6096299;19;1742;-71
2022/12/24 01:25:05;;;;;;;;;;;;;;;22.13;nan;94986.31;6092924;19;1746;-71
2022/12/24 01:27:08;;;;;;;;;;;;;;;22.12;nan;94990.03;6080593;19;1842;-71
2022/12/24 01:29:12;;;;;;;;;;;;;;;22.16;nan;94985.03;6066308;19;1802;-71
2022/12/24 01:31:16;;;;;;;;;;;;;;;22.11;nan;94983.06;6094379;19;1875;-71
2022/12/24 01:33:22;;;;;;;;;;;;;;;22.17;nan;94982.16;6094968;19;1781;-70
2022/12/24 01:35:25;;;;;;;;;;;;;;;22.17;nan;94979.47;6091209;19;1738;-70
2022/12/24 01:37:28;;;;;;;;;;;;;;;22.17;nan;94981.31;6083896;19;1825;-71
2022/12/24 01:39:32;;;;;;;;;;;;;;;22.15;nan;94984.22;6065595;19;1714;-71
2022/12/24 01:43:48;;;;;;;;;;;;;;;22.12;nan;94993.53;6092808;19;980;-70
2022/12/24 01:45:52;;;;;;;;;;;;;;;22.08;nan;94995.00;6090913;19;1849;-70
2022/12/24 01:47:56;;;;;;;;;;;;;;;22.09;nan;94991.28;6087714;19;1859;-71
2022/12/24 01:50:04;;;;;;;;;;;;;;;22.11;nan;94989.22;6093687;19;1668;-70
2022/12/24 01:52:10;;;;;;;;;;;;;;;22.13;nan;94992.47;6072597;19;1585;-71
2022/12/24 01:54:16;;;;;;;;;;;;;;;22.11;nan;94994.56;6093622;19;1749;-71
2022/12/24 01:56:20;;;;;;;;;;;;;;;22.11;nan;94981.19;6093880;19;1705;-71
2022/12/24 01:58:25;;;;;;;;;;;;;;;22.12;nan;94982.81;6087005;19;1858;-71
2022/12/24 02:00:29;;;;;;;;;;;;;;;22.12;nan;94982.00;6089101;19;1704;-70
2022/12/24 02:02:32;;;;;;;;;;;;;;;22.12;nan;94985.50;6066318;19;1651;-71
2022/12/24 02:04:38;;;;;;;;;;;;;;;22.11;nan;94989.22;6091406;19;1041;-70
2022/12/24 02:06:44;;;;;;;;;;;;;;;22.13;nan;94981.75;6090971;19;1861;-71
2022/12/24 02:08:47;;;;;;;;;;;;;;;22.20;nan;94980.91;6093555;19;1810;-71
2022/12/24 02:10:51;;;;;;;;;;;;;;;22.15;nan;94972.72;6091680;19;1684;-71
2022/12/24 02:12:54;;;;;;;;;;;;;;;22.21;nan;94971.81;6092728;19;1894;-71
2022/12/24 02:14:58;;;;;;;;;;;;;;;22.24;nan;94964.16;6087114;19;1888;-70
2022/12/24 02:17:08;;;;;;;;;;;;;;;22.25;nan;94967.66;6102002;19;1770;-72
2022/12/24 02:19:23;;;;;;;;;;;;;;;22.37;nan;94971.22;6101566;19;1516;-71
2022/12/24 02:21:39;;;;;;;;;;;;;;;22.40;nan;94975.31;6094401;19;1799;-73
2022/12/24 02:24:03;;;;;;;;;;;;;;;22.40;nan;94986.84;6098233;19;1841;-70
2022/12/24 02:26:13;;;;;;;;;;;;;;;22.49;nan;94980.13;6069596;19;1845;-70
2022/12/24 02:28:22;;;;;;;;;;;;;;;22.44;nan;94982.66;6095910;19;1805;-71
2022/12/24 02:30:33;;;;;;;;;;;;;;;22.28;nan;94977.91;6092393;19;1836;-70
2022/12/24 02:32:47;;;;;;;;;;;;;;;22.28;nan;94975.22;6097558;19;1715;-71
2022/12/24 02:34:53;;;;;;;;;;;;;;;22.28;nan;94972.56;6095890;19;1087;-70
2022/12/24 02:37:00;;;;;;;;;;;;;;;22.29;nan;94979.56;6069823;19;1534;-71
2022/12/24 02:39:04;;;;;;;;;;;;;;;22.27;nan;94978.94;6096660;19;1721;-71
2022/12/24 02:41:09;;;;;;;;;;;;;;;22.22;nan;94978.81;6092606;19;1096;-73
2022/12/24 02:43:16;;;;;;;;;;;;;;;22.23;nan;94975.91;6095949;19;1739;-73
2022/12/24 02:45:22;;;;;;;;;;;;;;;22.25;nan;94973.00;6097783;19;1516;-73
2022/12/24 02:47:29;;;;;;;;;;;;;;;22.29;nan;94975.03;6084688;19;1849;-74
2022/12/24 02:49:33;;;;;;;;;;;;;;;22.37;nan;94970.38;6085495;19;1814;-74
2022/12/24 02:51:36;;;;;;;;;;;;;;;22.37;nan;94971.22;6093774;19;1705;-74
2022/12/24 02:53:39;;;;;;;;;;;;;;;22.34;nan;94969.81;6096530;19;1695;-74
2022/12/24 02:55:49;;;;;;;;;;;;;;;22.53;nan;94964.44;6097493;19;1710;-74
2022/12/24 02:58:03;;;;;;;;;;;;;;;22.56;nan;94956.78;6101242;19;1665;-72
2022/12/24 03:00:07;;;;;;;;;;;;;;;22.51;nan;94955.84;6068187;19;1773;-72
2022/12/24 03:02:18;;;;;;;;;;;;;;;22.53;nan;94954.53;6093300;19;1694;-72
2022/12/24 03:04:40;;;;;;;;;;;;;;;22.53;nan;94959.06;6094663;19;1526;-72
2022/12/24 03:06:47;;;;;;;;;;;;;;;22.45;nan;94956.69;6096837;19;1861;-73
2022/12/24 03:08:56;;;;;;;;;;;;;;;22.35;nan;94958.06;6097016;19;1740;-73
2022/12/24 03:11:02;;;;;;;;;;;;;;;22.32;nan;94966.53;6070746;19;1617;-73
2022/12/24 03:13:08;;;;;;;;;;;;;;;22.34;nan;94963.66;6096442;19;1749;-73
2022/12/24 03:15:13;;;;;;;;;;;;;;;22.25;nan;94963.13;6097104;19;1494;-73
2022/12/24 03:17:17;;;;;;;;;;;;;;;22.23;nan;94964.41;6095404;19;1775;-75
2022/12/24 03:19:21;;;;;;;;;;;;;;;22.25;nan;94962.28;6098007;19;1820;-76
2022/12/24 03:21:30;;;;;;;;;;;;;;;22.37;nan;94959.69;6081802;19;1578;-73
2022/12/24 03:23:34;;;;;;;;;;;;;;;22.57;nan;94957.59;6080758;19;1792;-69
2022/12/24 03:25:40;;;;;;;;;;;;;;;22.55;nan;94967.72;6096508;19;1628;-70
2022/12/24 03:27:43;;;;;;;;;;;;;;;22.54;nan;94964.22;6091962;19;1859;-70
2022/12/24 03:29:47;;;;;;;;;;;;;;;22.56;nan;94972.84;6095593;19;1845;-71
2022/12/24 03:31:51;;;;;;;;;;;;;;;22.42;nan;94970.53;6096205;19;1824;-72
2022/12/24 03:33:55;;;;;;;;;;;;;;;22.40;nan;94954.72;6070960;19;1846;-71
2022/12/24 03:35:58;;;;;;;;;;;;;;;22.39;nan;94965.63;6109872;19;1628;-73
2022/12/24 03:38:04;;;;;;;;;;;;;;;22.28;nan;94962.69;6103974;19;1828;-73
2022/12/24 03:40:05;;;;;;;;;;;;;;;22.25;nan;94967.66;6103534;19;1774;-73
2022/12/24 03:42:09;;;;;;;;;;;;;;;22.25;nan;94965.81;6094005;19;1850;-73
2022/12/24 03:44:12;;;;;;;;;;;;;;;22.26;nan;94966.63;6076117;19;1900;-73
2022/12/24 03:46:15;;;;;;;;;;;;;;;22.31;nan;94966.78;6080105;19;1652;-72
2022/12/24 03:48:18;;;;;;;;;;;;;;;22.25;nan;94968.50;6095618;19;1861;-72
2022/12/24 03:50:22;;;;;;;;;;;;;;;22.23;nan;94962.53;6097413;19;1774;-73
2022/12/24 03:52:25;;;;;;;;;;;;;;;22.30;nan;94967.81;6094873;19;1800;-71
2022/12/24 03:54:31;;;;;;;;;;;;;;;22.31;nan;94970.28;6085375;19;1535;-70
2022/12/24 03:56:34;;;;;;;;;;;;;;;22.36;nan;94969.56;6068875;19;1601;-70
2022/12/24 03:58:38;;;;;;;;;;;;;;;22.74;nan;94973.91;6094291;19;1808;-72
2022/12/24 04:00:41;;;;;;;;;;;;;;;22.70;nan;94973.50;6093708;19;1616;-73
2022/12/24 04:02:44;;;;;;;;;;;;;;;22.60;nan;94977.75;6095724;19;1891;-73
2022/12/24 04:04:48;;;;;;;;;;;;;;;22.49;nan;94974.78;6085922;19;1050;-73
2022/12/24 04:06:51;;;;;;;;;;;;;;;22.42;nan;94984.75;6080859;19;1842;-73
2022/12/24 04:08:54;;;;;;;;;;;;;;;22.44;nan;94977.31;6083227;19;1535;-72
2022/12/24 04:11:00;;;;;;;;;;;;;;;22.47;nan;94973.38;6097121;19;2513;-73
2022/12/24 04:13:03;;;;;;;;;;;;;;;22.51;nan;94980.75;6094924;19;1666;-73
2022/12/24 04:15:07;;;;;;;;;;;;;;;22.50;nan;94987.13;6091596;19;1530;-73
2022/12/24 04:17:11;;;;;;;;;;;;;;;22.46;nan;94988.63;6095231;19;1797;-73
2022/12/24 04:19:14;;;;;;;;;;;;;;;22.48;nan;94983.03;6068139;19;1825;-73
2022/12/24 04:21:18;;;;;;;;;;;;;;;22.45;nan;94987.00;6098920;19;1712;-73
2022/12/24 04:23:21;;;;;;;;;;;;;;;22.46;nan;94987.81;6108065;19;1740;-73
2022/12/24 04:25:24;;;;;;;;;;;;;;;22.42;nan;94990.09;6104330;19;1904;-73
2022/12/24 04:27:30;;;;;;;;;;;;;;;22.33;nan;94986.09;6095026;19;1861;-73
2022/12/24 04:29:34;;;;;;;;;;;;;;;22.25;nan;94983.69;6082301;19;1694;-73
2022/12/24 04:31:37;;;;;;;;;;;;;;;22.12;nan;94990.84;6082905;19;1809;-74
2022/12/24 04:33:40;;;;;;;;;;;;;;;22.08;nan;94997.69;6094816;19;1726;-73
2022/12/24 04:35:44;;;;;;;;;;;;;;;22.04;nan;94999.16;6093082;19;1020;-73
2022/12/24 04:37:47;;;;;;;;;;;;;;;22.05;nan;95003.50;6096155;19;1763;-73
2022/12/24 04:39:50;;;;;;;;;;;;;;;22.06;nan;95005.13;6095548;19;1383;-73
2022/12/24 04:41:54;;;;;;;;;;;;;;;22.05;nan;94998.13;6068458;19;1743;-72
2022/12/24 04:44:00;;;;;;;;;;;;;;;22.06;nan;94999.75;6095737;19;1747;-73
2022/12/24 04:46:07;;;;;;;;;;;;;;;22.07;nan;95013.94;6096358;19;1726;-73
2022/12/24 04:48:10;;;;;;;;;;;;;;;22.06;nan;95015.00;6090515;19;1822;-73
2022/12/24 04:50:13;;;;;;;;;;;;;;;22.04;nan;95009.84;6096276;19;1656;-72
2022/12/24 04:52:17;;;;;;;;;;;;;;;22.09;nan;95019.91;6081320;19;1710;-71
2022/12/24 04:54:20;;;;;;;;;;;;;;;22.06;nan;95015.81;6081937;19;1752;-70
2022/12/24 04:56:24;;;;;;;;;;;;;;;22.07;nan;95008.59;6094597;19;1486;-73
2022/12/24 04:58:28;;;;;;;;;;;;;;;22.20;nan;95011.16;6089680;19;1498;-73
2022/12/24 05:00:34;;;;;;;;;;;;;;;22.18;nan;95010.56;6095097;19;1881;-73
2022/12/24 05:02:37;;;;;;;;;;;;;;;22.10;nan;95003.63;6092577;19;1856;-72
2022/12/24 05:04:40;;;;;;;;;;;;;;;22.09;nan;95006.53;6068830;19;1424;-73
2022/12/24 05:06:43;;;;;;;;;;;;;;;22.10;nan;95006.28;6094362;19;1466;-73
2022/12/24 05:08:47;;;;;;;;;;;;;;;22.15;nan;95005.66;6083233;19;1841;-72
2022/12/24 05:10:56;;;;;;;;;;;;;;;22.16;nan;94995.75;6095722;19;1721;-71
2022/12/24 05:13:00;;;;;;;;;;;;;;;22.10;nan;95008.97;6091254;19;1712;-72
2022/12/24 05:15:03;;;;;;;;;;;;;;;22.16;nan;95009.13;6083453;19;1730;-73
2022/12/24 05:17:12;;;;;;;;;;;;;;;22.11;nan;94994.56;6079537;19;1544;-72
2022/12/24 05:19:15;;;;;;;;;;;;;;;22.12;nan;94995.38;6090624;19;1502;-73
2022/12/24 05:21:20;;;;;;;;;;;;;;;22.15;nan;94983.41;6091181;19;1789;-71
2022/12/24 05:27:57;;;;;;;;;;;;;;;22.36;nan;94974.94;6072259;19;1854;-69
2022/12/24 05:30:00;;;;;;;;;;;;;;;22.32;nan;94979.09;6092927;19;1849;-70
2022/12/24 05:32:03;;;;;;;;;;;;;;;22.20;nan;94976.34;6094158;19;1754;-70
2022/12/24 05:34:10;;;;;;;;;;;;;;;22.48;nan;94978.50;6095143;19;1747;-70
2022/12/24 05:36:13;;;;;;;;;;;;;;;22.44;nan;94984.53;6091993;19;1742;-71
2022/12/24 05:38:16;;;;;;;;;;;;;;;22.27;nan;94984.31;6066604;19;1724;-72
2022/12/24 05:40:20;;;;;;;;;;;;;;;22.13;nan;94979.09;6080091;19;1839;-73
2022/12/24 05:42:23;;;;;;;;;;;;;;;22.08;nan;94975.44;6091185;19;1841;-73
2022/12/24 05:44:26;;;;;;;;;;;;;;;22.08;nan;94975.44;6089165;19;1525;-72
2022/12/24 05:46:29;;;;;;;;;;;;;;;22.03;nan;94970.78;6097708;19;1782;-72
2022/12/24 05:48:33;;;;;;;;;;;;;;;22.05;nan;94984.75;6104649;19;2006;-72
2022/12/24 05:50:40;;;;;;;;;;;;;;;22.02;nan;94982.50;6074404;19;1817;-72
2022/12/24 05:52:44;;;;;;;;;;;;;;;22.02;nan;94985.19;6104571;19;1900;-72
2022/12/24 05:54:47;;;;;;;;;;;;;;;22.02;nan;94979.81;6096345;19;1992;-73
2022/12/24 05:56:50;;;;;;;;;;;;;;;22.03;nan;94981.47;6091815;19;1700;-72
2022/12/24 05:58:54;;;;;;;;;;;;;;;22.04;nan;94969.72;6089676;19;1838;-72
2022/12/24 06:00:57;;;;;;;;;;;;;;;22.05;nan;94974.06;6065168;19;1909;-70
2022/12/24 06:03:01;;;;;;;;;;;;;;;22.04;nan;94972.41;6084669;19;1760;-71
2022/12/24 06:05:04;;;;;;;;;;;;;;;22.06;nan;94981.03;6093528;19;1494;-69
2022/12/24 06:07:10;;;;;;;;;;;;;;;22.12;nan;94985.50;6091351;19;1867;-71
2022/12/24 06:09:13;;;;;;;;;;;;;;;22.10;nan;94989.44;6088624;19;1858;-71
2022/12/24 06:11:18;;;;;;;;;;;;;;;22.09;nan;94991.28;6089973;19;1336;-70
2022/12/24 06:13:21;;;;;;;;;;;;;;;22.08;nan;94991.50;6068413;19;1785;-72
2022/12/24 06:15:24;;;;;;;;;;;;;;;22.12;nan;94998.06;6092989;19;1813;-69
2022/12/24 06:17:28;;;;;;;;;;;;;;;22.09;nan;94985.94;6091931;19;1706;-71
2022/12/24 06:19:31;;;;;;;;;;;;;;;22.10;nan;94995.59;6090102;19;1847;-70
2022/12/24 06:21:35;;;;;;;;;;;;;;;22.12;nan;95004.22;6088886;19;1827;-70
2022/12/24 06:23:42;;;;;;;;;;;;;;;22.13;nan;95007.72;6059482;19;1790;-70
2022/12/24 06:25:45;;;;;;;;;;;;;;;22.07;nan;95006.75;6089020;19;1812;-69
2022/12/24 06:27:48;;;;;;;;;;;;;;;22.11;nan;95015.97;6090963;19;1835;-69
2022/12/24 06:29:52;;;;;;;;;;;;;;;22.11;nan;95015.97;6090535;19;1680;-70
2022/12/24 06:31:55;;;;;;;;;;;;;;;22.15;nan;95010.19;6090994;19;1682;-71
2022/12/24 06:33:58;;;;;;;;;;;;;;;22.16;nan;95014.47;6084165;19;1816;-72
2022/12/24 06:36:02;;;;;;;;;;;;;;;22.17;nan;95018.78;6066888;19;1737;-72
2022/12/24 06:38:05;;;;;;;;;;;;;;;22.16;nan;95017.16;6090915;19;1714;-69
2022/12/24 06:40:12;;;;;;;;;;;;;;;22.21;nan;95018.13;6092992;19;1781;-71
2022/12/24 06:42:15;;;;;;;;;;;;;;;19.37;nan;95035.13;6090938;19;1510;-71
2022/12/24 06:44:19;;;;;;;;;;;;;;;16.23;nan;95036.44;6094417;19;1749;-71
2022/12/24 06:46:23;;;;;;;;;;;;;;;18.99;nan;95039.16;6075163;19;1122;-70
2022/12/24 06:48:26;;;;;;;;;;;;;;;20.71;nan;95026.75;6098959;19;1908;-70
2022/12/24 06:50:29;;;;;;;;;;;;;;;21.48;nan;95032.09;6088064;19;1808;-70
2022/12/24 06:52:33;;;;;;;;;;;;;;;21.85;nan;95033.06;6090178;19;1743;-69
2022/12/24 06:54:36;;;;;;;;;;;;;;;21.81;nan;95037.19;6093237;19;1670;-69
2022/12/24 06:56:42;;;;;;;;;;;;;;;21.79;nan;95043.81;6069784;19;1691;-71
2022/12/24 06:58:45;;;;;;;;;;;;;;;21.77;nan;95040.53;6077624;19;1768;-70
2022/12/24 07:00:49;;;;;;;;;;;;;;;21.78;nan;95039.50;6087917;19;1803;-68
2022/12/24 07:02:52;;;;;;;;;;;;;;;15.56;nan;95028.50;6094593;19;1697;-70
2022/12/24 07:04:55;;;;;;;;;;;;;;;;;;6094899;19;1811;-70
2022/12/24 07:06:58;;;;;;;;;;;;;;;12.38;nan;95049.50;6093418;19;1780;-70
2022/12/24 07:09:02;;;;;;;;;;;;;;;12.11;nan;95059.22;6066812;19;1849;-70
2022/12/24 07:11:05;;;;;;;;;;;;;;;11.95;nan;95057.34;6095593;19;1538;-70
2022/12/24 07:13:11;;;;;;;;;;;;;;;11.53;nan;95044.09;6095123;19;1458;-70
2022/12/24 07:15:14;;;;;;;;;;;;;;;11.26;nan;95048.50;6097776;19;1551;-70
2022/12/24 07:17:18;;;;;;;;;;;;;;;11.41;nan;95040.06;6097529;19;1817;-70
2022/12/24 07:19:21;;;;;;;;;;;;;;;11.28;nan;95046.56;6095582;19;1385;-70
2022/12/24 07:21:24;;;;;;;;;;;;;;;11.25;nan;95049.50;6069035;19;1209;-70
2022/12/24 07:23:28;;;;;;;;;;;;;;;11.27;nan;95050.16;6096366;19;1627;-69
2022/12/24 07:25:31;;;;;;;;;;;;;;;11.44;nan;95037.97;6094433;19;1104;-70
2022/12/24 07:27:34;;;;;;;;;;;;;;;11.54;nan;95036.03;6093236;19;1494;-69
2022/12/24 07:29:40;;;;;;;;;;;;;;;11.53;nan;95042.28;6094733;19;1834;-70
2022/12/24 07:31:44;;;;;;;;;;;;;;;11.53;nan;95047.56;6075727;19;1683;-70
2022/12/24 07:33:47;;;;;;;;;;;;;;;11.41;nan;95045.31;6093846;19;1888;-70
2022/12/24 07:35:50;;;;;;;;;;;;;;;11.38;nan;95051.75;6105818;19;1674;-70
2022/12/24 07:37:54;;;;;;;;;;;;;;;10.96;nan;95052.38;6108532;19;1695;-70
2022/12/24 07:39:57;;;;;;;;;;;;;;;11.01;nan;95058.00;6103672;19;1460;-69
2022/12/24 07:42:00;;;;;;;;;;;;;;;11.10;nan;95048.38;6094804;19;1243;-70
2022/12/24 07:44:04;;;;;;;;;;;;;;;10.76;nan;95053.47;6068556;19;1266;-70
2022/12/24 07:46:10;;;;;;;;;;;;;;;11.45;nan;95052.75;6094851;19;1124;-71
2022/12/24 07:48:13;;;;;;;;;;;;;;;11.65;nan;95053.38;6091146;19;1853;-72
2022/12/24 07:50:17;;;;;;;;;;;;;;;11.32;nan;95058.44;6091838;19;1525;-73
2022/12/24 07:52:20;;;;;;;;;;;;;;;11.22;nan;95056.88;6095635;19;1030;-73
2022/12/24 07:54:23;;;;;;;;;;;;;;;11.33;nan;95057.44;6086228;19;1792;-73
2022/12/24 07:56:27;;;;;;;;;;;;;;;11.27;nan;95060.69;6079836;19;1738;-73
2022/12/24 07:58:30;;;;;;;;;;;;;;;11.45;nan;95062.47;6098091;19;1719;-73
2022/12/24 08:00:33;;;;;;;;;;;;;;;11.42;nan;95057.50;6093663;19;1760;-72
2022/12/24 08:02:39;;;;;;;;;;;;;;;11.45;nan;95065.09;6094568;19;1792;-73
2022/12/24 08:04:43;;;;;;;;;;;;;;;11.61;nan;95067.84;6097441;19;2148;-72
2022/12/24 08:06:46;;;;;;;;;;;;;;;11.61;nan;95073.13;6070182;19;1150;-73
2022/12/24 08:08:49;;;;;;;;;;;;;;;11.86;nan;95071.44;6095248;19;1840;-68
2022/12/24 08:10:53;;;;;;;;;;;;;;;12.01;nan;95069.88;6096725;19;1572;-73
2022/12/24 08:12:56;;;;;;;;;;;;;;;11.92;nan;95069.97;6097425;19;1717;-74
2022/12/24 08:15:00;;;;;;;;;;;;;;;12.63;nan;95079.38;6097275;19;1754;-73
2022/12/24 08:17:03;;;;;;;;;;;;;;;13.06;nan;95075.69;6083098;19;1196;-74
2022/12/24 08:19:09;;;;;;;;;;;;;;;13.33;nan;95077.19;6080324;19;1205;-72
2022/12/24 08:21:12;;;;;;;;;;;;;;;13.31;nan;95083.63;6097240;19;1491;-71
2022/12/24 08:23:15;;;;;;;;;;;;;;;12.87;nan;95090.00;6089667;19;1176;-71
2022/12/24 08:25:19;;;;;;;;;;;;;;;12.99;nan;95084.41;6090742;19;1580;-75
2022/12/24 08:27:22;;;;;;;;;;;;;;;13.38;nan;95077.53;6093021;19;1735;-73
2022/12/24 08:29:26;;;;;;;;;;;;;;;13.91;nan;95080.63;6078727;19;1845;-69
2022/12/24 08:31:30;;;;;;;;;;;;;;;14.21;nan;95068.50;6106819;19;1629;-67
2022/12/24 08:33:33;;;;;;;;;;;;;;;14.41;nan;95082.16;6095307;19;1774;-67
2022/12/24 08:35:40;;;;;;;;;;;;;;;14.56;nan;95084.88;6093042;19;1343;-70
2022/12/24 08:37:43;;;;;;;;;;;;;;;14.63;nan;95080.56;6096532;19;1703;-69
2022/12/24 08:39:46;;;;;;;;;;;;;;;14.51;nan;95064.25;6081200;19;1764;-67
2022/12/24 08:41:49;;;;;;;;;;;;;;;15.16;nan;95068.38;6081216;19;1827;-67
2022/12/24 08:43:53;;;;;;;;;;;;;;;15.70;nan;95063.97;6086587;19;1525;-67
2022/12/24 08:45:56;;;;;;;;;;;;;;;16.16;nan;95056.75;6095447;19;1516;-68
2022/12/24 08:48:00;;;;;;;;;;;;;;;16.53;nan;95053.16;6093458;19;1575;-68
2022/12/24 08:50:03;;;;;;;;;;;;;;;16.84;nan;95049.44;6090731;19;1856;-68
2022/12/24 08:52:09;;;;;;;;;;;;;;;17.13;nan;95047.72;6067816;19;1017;-68
2022/12/24 08:54:13;;;;;;;;;;;;;;;17.37;nan;95039.38;6084328;19;1243;-68
2022/12/24 08:56:16;;;;;;;;;;;;;;;17.59;nan;95042.03;6092655;19;1203;-67
2022/12/24 08:58:19;;;;;;;;;;;;;;;17.80;nan;95043.84;6092531;19;1723;-67
2022/12/24 09:00:23;;;;;;;;;;;;;;;17.97;nan;95045.19;6096141;19;1085;-68
2022/12/24 09:02:26;;;;;;;;;;;;;;;18.13;nan;95049.41;6094119;19;1809;-68
2022/12/24 09:04:29;;;;;;;;;;;;;;;18.26;nan;95054.78;6069629;19;1743;-67
2022/12/24 09:06:33;;;;;;;;;;;;;;;18.40;nan;95046.88;6093087;19;1790;-67
2022/12/24 09:08:39;;;;;;;;;;;;;;;18.51;nan;95056.97;6093613;19;1846;-67
2022/12/24 09:10:42;;;;;;;;;;;;;;;18.63;nan;95057.22;6094501;19;1843;-67
2022/12/24 09:12:45;;;;;;;;;;;;;;;18.73;nan;95055.88;6091766;19;1775;-66
2022/12/24 09:14:49;;;;;;;;;;;;;;;18.83;nan;95066.13;6054525;19;1707;-66
2022/12/24 09:16:52;;;;;;;;;;;;;;;18.91;nan;95052.63;6091662;19;1633;-68
2022/12/24 09:18:55;;;;;;;;;;;;;;;18.99;nan;95052.47;6102358;19;1729;-68
2022/12/24 09:21:02;;;;;;;;;;;;;;;19.09;nan;95053.91;6107714;19;1711;-67
2022/12/24 09:23:05;;;;;;;;;;;;;;;19.15;nan;95055.78;6107076;19;1859;-68
2022/12/24 09:25:12;;;;;;;;;;;;;;;19.20;nan;95050.66;6100266;19;1764;-68
2022/12/24 09:27:15;;;;;;;;;;;;;;;19.34;nan;95052.31;6084037;19;2045;-70
2022/12/24 09:29:18;;;;;;;;;;;;;;;19.45;nan;95050.91;6091211;19;1842;-70
2022/12/24 09:31:22;;;;;;;;;;;;;;;19.58;nan;95047.50;6092287;19;1057;-68
2022/12/24 09:33:25;;;;;;;;;;;;;;;19.76;nan;95047.69;6091218;19;1751;-69
2022/12/24 09:35:28;;;;;;;;;;;;;;;20.04;nan;95049.31;6093119;19;1808;-66
2022/12/24 09:37:32;;;;;;;;;;;;;;;20.05;nan;95048.28;6062661;19;1791;-67
2022/12/24 09:39:35;;;;;;;;;;;;;;;19.68;nan;95053.22;6092556;19;1821;-69
2022/12/24 09:41:48;;;;;;;;;;;;;;;19.79;nan;95046.44;6093650;19;1703;-69
2022/12/24 09:43:58;;;;;;;;;;;;;;;19.90;nan;95051.16;6091064;19;1877;-68
2022/12/24 09:46:08;;;;;;;;;;;;;;;20.03;nan;95045.81;6092580;19;1694;-69
2022/12/24 09:48:15;;;;;;;;;;;;;;;20.10;nan;95035.94;6066373;19;1822;-67
2022/12/24 09:50:30;;;;;;;;;;;;;;;20.19;nan;95041.88;6076295;19;1837;-72
2022/12/24 09:52:36;;;;;;;;;;;;;;;20.25;nan;95034.91;6102447;19;1116;-69
2022/12/24 09:54:43;;;;;;;;;;;;;;;20.30;nan;95046.59;6105207;19;1592;-68
2022/12/24 09:56:49;;;;;;;;;;;;;;;20.35;nan;95043.28;6105374;19;1300;-69
2022/12/24 09:58:57;;;;;;;;;;;;;;;20.39;nan;95041.06;6099957;19;1043;-69
2022/12/24 10:01:01;;;;;;;;;;;;;;;20.44;nan;95049.25;6072839;19;1330;-68
2022/12/24 10:03:08;;;;;;;;;;;;;;;20.48;nan;95042.47;6102183;19;1686;-69
2022/12/24 10:05:15;;;;;;;;;;;;;;;20.50;nan;95035.06;6103693;19;1325;-68
2022/12/24 10:07:23;;;;;;;;;;;;;;;20.51;nan;95036.69;6100476;19;1743;-68
2022/12/24 10:09:31;;;;;;;;;;;;;;;20.55;nan;95035.25;6090970;19;1861;-70
2022/12/24 10:11:41;;;;;;;;;;;;;;;20.59;nan;95046.34;6072161;19;1948;-68
2022/12/24 10:13:52;;;;;;;;;;;;;;;20.61;nan;95053.09;6089792;19;1769;-68
2022/12/24 10:16:00;;;;;;;;;;;;;;;20.65;nan;95048.97;6092990;19;1723;-74
2022/12/24 10:18:10;;;;;;;;;;;;;;;-145.88;100.00;58037.16;6092757;19;1540;-74
2022/12/24 10:20:24;;;;;;;;;;;;;;;-145.88;100.00;58037.16;6095421;19;1727;-69
2022/12/24 10:22:32;;;;;;;;;;;;;;;-145.88;100.00;58037.16;6082397;19;1489;-69
2022/12/24 10:24:40;;;;;;;;;;;;;;;-145.88;100.00;58037.16;6081660;19;1598;-67
2022/12/24 10:26:46;;;;;;;;;;;;;;;-145.88;100.00;58037.16;6092886;19;1132;-69
2022/12/24 10:28:54;;;;;;;;;;;;;;;-145.88;100.00;58037.16;6098080;19;1551;-69
2022/12/24 10:31:01;;;;;;;;;;;;;;;-145.88;100.00;58037.16;6080111;19;1857;-70
2022/12/24 10:33:04;;;;;;;;;;;;;;;-145.88;100.00;58037.16;6090976;19;1407;-69
2022/12/24 10:35:17;;;;;;;;;;;;;;;-145.88;100.00;58037.16;6068771;19;1674;-70
2022/12/24 10:37:24;;;;;;;;;;;;;;;-145.88;100.00;58037.16;6097914;19;1548;-69
2022/12/24 10:39:28;;;;;;;;;;;;;;;-145.88;100.00;58037.16;6097999;19;1744;-69
2022/12/24 10:41:32;;;;;;;;;;;;;;;-145.88;100.00;58037.16;6090787;19;1702;-69
2022/12/24 10:43:35;;;;;;;;;;;;;;;-145.88;100.00;58037.16;6102436;19;1804;-69
2022/12/24 10:45:44;;;;;;;;;;;;;;;-145.88;100.00;58037.16;6088438;19;1719;-70
2022/12/24 10:47:49;;;;;;;;;;;;;;;-145.88;100.00;58037.16;6089604;19;1524;-69
2022/12/24 10:49:56;;;;;;;;;;;;;;;-145.88;100.00;58037.16;6100345;19;1926;-69
2022/12/24 10:52:01;;;;;;;;;;;;;;;-145.88;100.00;58037.16;6095009;19;1326;-68
2022/12/24 10:54:08;;;;;;;;;;;;;;;-145.88;100.00;58037.16;6098863;19;1475;-68
2022/12/24 10:56:13;;;;;;;;;;;;;;;-145.88;100.00;58037.16;6098721;19;1651;-69
2022/12/24 10:58:18;;;;;;;;;;;;;;;-145.88;100.00;58037.16;6072983;19;1573;-69
2022/12/24 11:00:23;;;;;;;;;;;;;;;-145.88;100.00;58037.16;6097996;19;1006;-69
2022/12/24 11:02:30;;;;;;;;;;;;;;;-145.88;100.00;58037.16;6096477;19;1694;-69
2022/12/24 11:04:34;;;;;;;;;;;;;;;-145.88;100.00;58037.16;6099142;19;1720;-69
2022/12/24 11:06:53;;;;;;;;;;;;;;;-145.88;100.00;58037.16;6094778;19;1836;-69
2022/12/24 11:09:13;;;;;;;;;;;;;;;-145.88;100.00;58037.16;6073562;19;1542;-69
2022/12/24 11:11:18;;;;;;;;;;;;;;;-145.88;100.00;58037.16;6093101;19;1845;-70
2022/12/24 11:13:24;;;;;;;;;;;;;;;-145.88;100.00;58037.16;6085746;19;1742;-69
2022/12/24 11:15:30;;;;;;;;;;;;;;;-145.88;100.00;58037.16;6097295;19;1160;-70
2022/12/24 11:17:37;;;;;;;;;;;;;;;-145.88;100.00;58037.16;6099655;19;1332;-69
2022/12/24 11:19:41;;;;;;;;;;;;;;;-145.88;100.00;58037.16;6090857;19;1656;-70
2022/12/24 11:21:44;;;;;;;;;;;;;;;-145.88;100.00;58037.16;6080563;19;1330;-70